ダッカ の空港の天気 - METARとTAF

シャージャラル国際空港(ダッカ) ( VGHS / DAC ) - バングラデシュ ダッカ
飛行場実況気象(Metar)
観測時間09/22 03:00 BDT (09/21 21:00 UTC)
風向・風速南 3m/s
視程4000m
天気現象煙霧
少しの雲 雲底高度 460m
全天の4割程度の雲 雲底高度 3050m
気温28℃
湿度84%
気圧1006hPa
METARVGHS 212100Z 18005KT 4000 HZ FEW015 SCT100 28/25 Q1006 NOSIG
過去の天気等 Google飛行場航空写真 Wunderground天気予報

過去48時間のMETAR

飛行場予報(TAF)
発表時間: 9/21 23:00 BDT (9/21 17:00 UTC)
予報対象時間: 22日0時 BDT ~ 23日6時 BDT
風向・風速南南西 4m/s
視程4,000m
天気現象煙霧
全天の4割程度の雲 雲底高度 460m
全天の8割程度の雲 雲底高度 3,050m
22日0時 BDT ~ 22日4時 BDT に一時的に
風向・風速南 13m/s
視程2,000m
22日5時 BDT ~ 22日7時 BDT に徐々に
風向・風速南南東 4m/s
視程3,500m
天気現象煙霧
全天の4割程度の雲 雲底高度 370m
全天の8割程度の雲 雲底高度 3,050m
22日9時 BDT ~ 22日11時 BDT に徐々に
風向・風速南南東 4m/s
視程4,000m
天気現象煙霧
全天の4割程度の雲 雲底高度 460m
全天の8割程度の雲 雲底高度 3,050m
22日13時 BDT ~ 22日18時 BDT に一時的に
風向・風速南 13m/s
視程2,000m
23日0時 BDT ~ 23日2時 BDT に徐々に
風向・風速南 4m/s
視程3,500m
天気現象煙霧
全天の4割程度の雲 雲底高度 370m
全天の8割程度の雲 雲底高度 3,050m
TAF VGHS 211700Z 2118/2224 20008KT 4000 HZ SCT015 BKN100
TEMPO 2118/2122 18025KT 2000 RA/TSRA BKN008 FEW025CB OVC090
BECMG 2123/2201 16008KT 3500 HZ SCT012 BKN100
BECMG 2203/2205 15008KT 4000 HZ SCT015 BKN100
TEMPO 2207/2212 18025KT 2000 RA/TSRA BKN008 FEW025CB OVC090
BECMG 2218/2220 17008KT 3500 HZ SCT012 BKN100